Time;durP1;ratioP1;P1;durP2;ratioP2;P2;SDS_P1;SDS_P2;PMS_P1;PMS_P2;Temp;Humidity;BMP_temperature;BMP_pressure;BME280_temperature;BME280_humidity;BME280_pressure;Samples;Min_cycle;Max_cycle;Signal;HPM_P1;HPM_P2
2022/08/01 00:02:00;;;;;;;1.50;0.90;;;21.80;98.20;;;;;;6105362;23;20757;-76
2022/08/01 00:04:27;;;;;;;1.43;0.90;;;21.80;98.20;;;;;;6121390;23;20524;-78
2022/08/01 00:06:54;;;;;;;1.47;0.90;;;21.80;98.20;;;;;;6106269;23;20516;-77
2022/08/01 00:09:21;;;;;;;1.47;0.90;;;21.80;98.20;;;;;;6121244;23;20819;-77
2022/08/01 00:11:48;;;;;;;1.47;0.90;;;21.80;98.20;;;;;;6105185;23;20783;-77
2022/08/01 00:14:16;;;;;;;1.47;0.90;;;21.80;98.20;;;;;;6118307;23;20501;-79
2022/08/01 00:16:43;;;;;;;1.50;0.90;;;21.80;98.20;;;;;;6105070;23;21036;-78
2022/08/01 00:19:10;;;;;;;1.47;0.90;;;21.80;98.20;;;;;;6119965;23;20665;-77
2022/08/01 00:21:36;;;;;;;1.43;0.90;;;21.70;98.20;;;;;;6105958;23;20911;-77
2022/08/01 00:24:03;;;;;;;1.47;0.90;;;21.70;98.20;;;;;;6130164;23;20465;-77
2022/08/01 00:26:30;;;;;;;1.40;0.90;;;21.60;98.20;;;;;;6106804;23;20446;-78
2022/08/01 00:28:57;;;;;;;1.50;0.90;;;21.60;98.20;;;;;;6121543;23;20480;-77
2022/08/01 00:31:25;;;;;;;1.50;0.90;;;21.60;98.20;;;;;;6107864;23;20473;-77
2022/08/01 00:33:52;;;;;;;1.50;0.90;;;21.60;98.20;;;;;;6123189;23;21047;-77
2022/08/01 00:36:19;;;;;;;1.50;0.90;;;21.60;98.20;;;;;;6107967;23;20449;-78
2022/08/01 00:38:46;;;;;;;1.50;0.90;;;21.60;98.20;;;;;;6131613;23;20425;-78
2022/08/01 00:41:13;;;;;;;1.50;0.90;;;21.60;98.20;;;;;;6107487;23;20520;-78
2022/08/01 00:43:40;;;;;;;1.47;0.90;;;21.60;98.20;;;;;;6121429;23;20425;-79
2022/08/01 00:46:06;;;;;;;1.47;0.90;;;21.70;98.20;;;;;;6108441;23;20431;-77
2022/08/01 00:48:35;;;;;;;1.50;0.90;;;21.70;98.20;;;;;;6121396;23;20937;-77
2022/08/01 00:51:02;;;;;;;1.47;0.90;;;21.70;98.20;;;;;;6107549;23;20425;-77
2022/08/01 00:53:30;;;;;;;1.47;0.90;;;21.70;98.20;;;;;;6121855;23;20637;-77
2022/08/01 00:55:58;;;;;;;1.50;0.83;;;21.70;98.20;;;;;;6107467;23;20441;-77
2022/08/01 00:58:25;;;;;;;1.50;0.90;;;21.60;98.20;;;;;;6121645;23;20809;-78
2022/08/01 01:00:52;;;;;;;1.47;0.90;;;21.60;98.20;;;;;;6108085;23;20512;-78
2022/08/01 01:03:19;;;;;;;1.50;0.90;;;21.60;98.20;;;;;;6120936;23;20417;-81
2022/08/01 01:05:56;;;;;;;1.43;0.90;;;21.50;98.20;;;;;;6115270;23;20449;-78
2022/08/01 01:08:29;;;;;;;1.50;0.87;;;21.50;98.20;;;;;;6121632;23;20766;-80
2022/08/01 01:11:02;;;;;;;1.47;0.90;;;21.50;98.20;;;;;;6107955;23;20420;-78
2022/08/01 01:13:36;;;;;;;1.47;0.90;;;21.40;98.20;;;;;;6122264;23;20523;-78
2022/08/01 01:16:09;;;;;;;1.50;0.90;;;21.40;98.20;;;;;;6108510;23;20500;-78
2022/08/01 01:18:39;;;;;;;1.47;0.90;;;21.30;98.20;;;;;;6122522;23;20468;-77
2022/08/01 01:21:27;;;;;;;1.50;0.90;;;21.40;98.20;;;;;;6108660;23;20819;-78
2022/08/01 01:24:04;;;;;;;1.50;0.90;;;21.30;98.20;;;;;;6122905;23;20409;-79
2022/08/01 01:26:41;;;;;;;1.50;0.90;;;21.40;98.20;;;;;;6107905;23;20824;-77
2022/08/01 01:29:16;;;;;;;1.47;0.90;;;21.40;98.20;;;;;;6122694;23;20421;-76
2022/08/01 01:31:48;;;;;;;1.47;0.90;;;21.40;98.20;;;;;;6106488;23;20453;-76
2022/08/01 01:34:19;;;;;;;1.50;0.90;;;21.40;98.20;;;;;;6114879;23;20898;-79
2022/08/01 01:36:48;;;;;;;1.50;0.90;;;21.40;98.20;;;;;;6105291;23;21312;-78
2022/08/01 01:39:16;;;;;;;1.50;0.90;;;21.40;98.20;;;;;;6120088;23;20507;-77
2022/08/01 01:41:45;;;;;;;1.50;0.90;;;21.30;98.20;;;;;;6105624;23;20449;-77
2022/08/01 01:44:14;;;;;;;1.47;0.90;;;21.30;98.20;;;;;;6122429;23;20473;-79
2022/08/01 01:46:42;;;;;;;1.50;0.90;;;21.30;98.20;;;;;;6106670;23;20934;-79
2022/08/01 01:49:10;;;;;;;1.50;0.90;;;21.30;98.20;;;;;;6121043;23;20446;-76
2022/08/01 01:51:39;;;;;;;1.43;0.90;;;21.30;98.20;;;;;;6106013;23;20472;-78
2022/08/01 01:54:09;;;;;;;1.47;0.90;;;21.30;98.20;;;;;;6121864;23;20450;-79
2022/08/01 01:56:48;;;;;;;1.50;0.90;;;21.30;98.20;;;;;;6106798;23;20457;-77
2022/08/01 01:59:19;;;;;;;1.50;0.90;;;21.30;98.20;;;;;;6121856;23;20406;-78
2022/08/01 02:01:49;;;;;;;1.47;0.90;;;21.30;98.20;;;;;;6107095;23;20512;-78
2022/08/01 02:04:16;;;;;;;1.50;1.10;;;21.30;98.20;;;;;;6121950;23;20460;-77
2022/08/01 02:06:45;;;;;;;1.50;0.90;;;21.30;98.20;;;;;;6105717;23;20485;-78
2022/08/01 02:09:15;;;;;;;1.47;0.90;;;21.30;98.20;;;;;;6130778;23;20425;-77
2022/08/01 02:11:43;;;;;;;1.50;0.90;;;21.30;98.20;;;;;;6105363;23;20581;-77
2022/08/01 02:14:11;;;;;;;1.50;0.90;;;21.30;98.20;;;;;;6121023;23;20449;-78
2022/08/01 02:16:42;;;;;;;1.50;0.90;;;21.20;98.20;;;;;;6106680;23;20499;-77
2022/08/01 02:19:09;;;;;;;1.47;0.90;;;21.20;98.20;;;;;;6121775;23;20407;-78
2022/08/01 02:21:41;;;;;;;1.50;0.90;;;21.20;98.20;;;;;;6106027;23;20683;-78
2022/08/01 02:24:14;;;;;;;1.50;1.00;;;21.20;98.20;;;;;;6120554;23;20450;-77
2022/08/01 02:26:46;;;;;;;1.47;0.90;;;21.20;98.20;;;;;;6106230;23;20988;-77
2022/08/01 02:29:20;;;;;;;1.43;0.90;;;21.20;98.20;;;;;;6121697;23;20406;-79
2022/08/01 02:31:52;;;;;;;1.50;0.90;;;21.20;98.20;;;;;;6106437;23;20480;-81
2022/08/01 02:34:20;;;;;;;1.47;0.90;;;21.20;98.20;;;;;;6120499;23;20474;-77
2022/08/01 02:36:48;;;;;;;1.50;0.90;;;21.20;98.20;;;;;;6105769;23;20453;-81
2022/08/01 02:39:19;;;;;;;1.50;0.90;;;21.20;98.20;;;;;;6121290;23;20995;-79
2022/08/01 02:41:50;;;;;;;1.50;1.00;;;21.30;98.20;;;;;;6105983;23;20503;-78
2022/08/01 02:44:24;;;;;;;1.50;0.90;;;21.30;98.20;;;;;;6120944;23;20452;-80
2022/08/01 02:46:57;;;;;;;1.43;0.90;;;21.30;98.20;;;;;;6105758;23;20460;-77
2022/08/01 02:49:26;;;;;;;1.50;0.90;;;21.30;98.20;;;;;;6120704;23;21057;-78
2022/08/01 02:51:56;;;;;;;1.50;0.90;;;21.30;98.20;;;;;;6105569;23;21085;-79
2022/08/01 02:54:24;;;;;;;1.50;0.90;;;21.30;98.20;;;;;;6120478;23;20441;-78
2022/08/01 02:56:52;;;;;;;1.47;0.90;;;21.30;98.20;;;;;;6104410;23;20449;-78
2022/08/01 02:59:24;;;;;;;1.50;0.90;;;21.30;98.20;;;;;;6119842;23;20509;-78
2022/08/01 03:01:54;;;;;;;1.47;0.90;;;21.30;98.20;;;;;;6110424;23;20457;-78
2022/08/01 03:04:23;;;;;;;1.50;0.90;;;21.30;98.20;;;;;;6120991;23;20456;-78
2022/08/01 03:06:50;;;;;;;1.50;0.90;;;21.30;98.20;;;;;;6104482;23;20457;-79
2022/08/01 03:09:19;;;;;;;1.50;0.90;;;21.30;98.20;;;;;;6119897;23;20433;-78
2022/08/01 03:11:48;;;;;;;1.50;0.90;;;21.20;98.20;;;;;;6105069;23;20481;-79
2022/08/01 03:14:18;;;;;;;1.47;0.90;;;21.30;98.20;;;;;;6120355;23;20441;-78
2022/08/01 03:16:47;;;;;;;1.47;0.90;;;21.20;98.20;;;;;;6105334;23;20455;-78
2022/08/01 03:19:17;;;;;;;1.47;0.90;;;21.20;98.20;;;;;;6130953;23;20445;-78
2022/08/01 03:21:45;;;;;;;1.50;0.90;;;21.20;98.20;;;;;;6104826;23;20458;-78
2022/08/01 03:24:13;;;;;;;1.47;0.90;;;21.20;98.20;;;;;;6119841;23;20492;-79
2022/08/01 03:26:42;;;;;;;1.50;0.90;;;21.30;98.20;;;;;;6105741;23;20457;-78
2022/08/01 03:29:13;;;;;;;1.50;0.90;;;21.20;98.20;;;;;;6119309;23;20457;-79
2022/08/01 03:31:43;;;;;;;1.50;1.00;;;21.30;98.20;;;;;;6104701;23;20450;-78
2022/08/01 03:34:10;;;;;;;1.47;0.90;;;21.30;98.20;;;;;;6127860;23;20476;-78
2022/08/01 03:36:46;;;;;;;1.47;0.90;;;21.30;98.20;;;;;;6105234;23;20473;-78
2022/08/01 03:39:15;;;;;;;1.50;0.90;;;21.30;98.20;;;;;;6121802;23;20503;-79
2022/08/01 03:41:47;;;;;;;1.43;0.90;;;21.30;98.20;;;;;;6106298;23;20524;-77
2022/08/01 03:44:17;;;;;;;1.70;1.20;;;21.30;98.20;;;;;;6121409;23;20473;-79
2022/08/01 03:46:47;;;;;;;1.47;0.90;;;21.30;98.20;;;;;;6105983;23;20567;-80
2022/08/01 03:49:20;;;;;;;1.47;0.90;;;21.30;98.20;;;;;;6119917;23;20524;-79
2022/08/01 03:51:51;;;;;;;1.47;0.90;;;21.30;98.20;;;;;;6105392;23;20487;-80
2022/08/01 03:54:22;;;;;;;1.50;0.90;;;21.30;98.20;;;;;;6121209;23;20445;-78
2022/08/01 03:56:51;;;;;;;1.47;0.90;;;21.30;98.20;;;;;;6104388;23;20496;-78
2022/08/01 03:59:19;;;;;;;1.50;0.90;;;21.30;98.20;;;;;;6120915;23;20446;-79
2022/08/01 04:01:47;;;;;;;1.47;0.90;;;21.30;98.20;;;;;;6105423;23;20641;-79
2022/08/01 04:04:15;;;;;;;1.43;0.90;;;21.30;98.20;;;;;;6120992;23;20885;-79
2022/08/01 04:06:43;;;;;;;1.47;0.90;;;21.30;98.20;;;;;;6105649;23;20512;-78
2022/08/01 04:09:12;;;;;;;1.50;0.90;;;21.30;98.20;;;;;;6121166;23;20425;-80
2022/08/01 04:11:40;;;;;;;1.50;0.90;;;21.20;98.20;;;;;;6106207;23;20543;-79
2022/08/01 04:14:07;;;;;;;1.43;0.90;;;21.20;98.20;;;;;;6120741;23;20520;-79
2022/08/01 04:16:34;;;;;;;1.50;0.90;;;21.20;98.20;;;;;;6106070;23;20822;-78
2022/08/01 04:19:01;;;;;;;1.50;0.90;;;21.20;98.20;;;;;;6120996;23;20477;-79
2022/08/01 04:21:31;;;;;;;1.47;0.90;;;21.20;98.20;;;;;;6104474;23;20452;-77
2022/08/01 04:24:05;;;;;;;1.47;0.90;;;21.20;98.20;;;;;;6131398;23;20424;-79
2022/08/01 04:26:35;;;;;;;1.50;0.90;;;21.20;98.20;;;;;;6107334;23;21011;-76
2022/08/01 04:29:04;;;;;;;1.47;0.90;;;21.20;98.20;;;;;;6123870;23;20409;-78
2022/08/01 04:31:34;;;;;;;1.47;0.90;;;21.20;98.20;;;;;;6109204;23;21078;-78
2022/08/01 04:34:03;;;;;;;1.50;0.90;;;21.20;98.20;;;;;;6127112;23;20410;-80
2022/08/01 04:36:34;;;;;;;1.60;1.37;;;21.20;98.20;;;;;;6105604;23;20606;-77
2022/08/01 04:39:02;;;;;;;1.50;0.90;;;21.20;98.20;;;;;;6118734;23;20442;-76
2022/08/01 04:41:31;;;;;;;1.47;0.90;;;21.20;98.20;;;;;;6110089;23;20523;-77
2022/08/01 04:44:00;;;;;;;1.50;0.90;;;21.30;98.20;;;;;;6119396;23;20505;-76
2022/08/01 04:46:28;;;;;;;1.47;0.90;;;21.30;98.20;;;;;;6105958;23;20858;-77
2022/08/01 04:48:56;;;;;;;1.50;0.90;;;21.30;98.20;;;;;;6120143;23;20442;-78
2022/08/01 04:51:24;;;;;;;1.47;0.90;;;21.30;98.20;;;;;;6106803;23;20614;-78
2022/08/01 04:53:51;;;;;;;1.47;0.90;;;21.30;98.20;;;;;;6118789;23;21004;-77
2022/08/01 04:56:21;;;;;;;1.50;0.90;;;21.30;98.20;;;;;;6105035;23;20520;-78
2022/08/01 04:59:39;;;;;;;1.50;0.90;;;21.30;98.20;;;;;;6118329;23;20784;-79
2022/08/01 05:01:37;;;;;;;1.50;0.90;;;21.30;98.20;;;;;;6104251;23;20551;-77
2022/08/01 05:04:04;;;;;;;1.43;0.90;;;21.30;98.20;;;;;;6117843;23;20442;-78
2022/08/01 05:06:31;;;;;;;1.47;0.93;;;21.30;98.20;;;;;;6102625;23;20453;-77
2022/08/01 05:08:58;;;;;;;1.47;0.90;;;21.30;98.20;;;;;;6116870;23;20418;-79
2022/08/01 05:11:25;;;;;;;1.47;0.90;;;21.30;98.20;;;;;;6102316;23;21039;-78
2022/08/01 05:13:52;;;;;;;1.47;0.90;;;21.30;98.20;;;;;;6119542;23;20698;-76
2022/08/01 05:16:19;;;;;;;1.50;0.83;;;21.30;98.20;;;;;;6105609;23;20445;-77
2022/08/01 05:18:47;;;;;;;1.43;0.90;;;21.30;98.20;;;;;;6119972;23;20544;-77
2022/08/01 05:21:14;;;;;;;1.47;0.90;;;21.30;98.20;;;;;;6106974;23;20600;-77
2022/08/01 05:23:42;;;;;;;1.50;0.90;;;21.30;98.20;;;;;;6118424;23;20432;-77
2022/08/01 05:26:09;;;;;;;1.50;0.90;;;21.40;98.20;;;;;;6105604;23;20560;-78
2022/08/01 05:28:36;;;;;;;1.50;0.90;;;21.40;98.20;;;;;;6119822;23;20422;-77
2022/08/01 05:31:04;;;;;;;1.47;0.90;;;21.40;98.20;;;;;;6105322;23;20543;-77
2022/08/01 05:33:31;;;;;;;1.47;0.90;;;21.40;98.20;;;;;;6117748;23;20510;-77
2022/08/01 05:35:59;;;;;;;1.50;0.90;;;21.40;98.20;;;;;;6105689;23;20833;-78
2022/08/01 05:38:26;;;;;;;1.50;0.90;;;21.50;98.20;;;;;;6119414;23;20478;-78
2022/08/01 05:40:53;;;;;;;1.70;1.10;;;21.40;98.20;;;;;;6108533;23;20417;-77
2022/08/01 05:43:20;;;;;;;1.50;0.90;;;21.40;98.20;;;;;;6119209;23;20760;-76
2022/08/01 05:45:47;;;;;;;1.60;1.50;;;21.40;98.20;;;;;;6113378;23;20442;-77
2022/08/01 05:48:14;;;;;;;1.50;0.90;;;21.50;98.20;;;;;;6119936;23;20425;-77
2022/08/01 05:50:41;;;;;;;1.47;0.90;;;21.50;98.20;;;;;;6121182;23;20429;-78
2022/08/01 05:53:10;;;;;;;1.40;0.90;;;21.60;98.20;;;;;;6104944;23;20513;-77
2022/08/01 05:55:37;;;;;;;1.50;0.90;;;21.60;98.20;;;;;;6122073;23;20441;-76
2022/08/01 05:58:04;;;;;;;1.47;0.90;;;21.70;98.20;;;;;;6104812;23;20481;-76
2022/08/01 06:00:31;;;;;;;1.50;0.90;;;21.80;98.20;;;;;;6121358;23;20422;-76
2022/08/01 06:02:57;;;;;;;1.47;0.90;;;21.80;98.20;;;;;;6103498;23;20473;-76
2022/08/01 06:05:25;;;;;;;1.50;0.90;;;21.90;98.20;;;;;;6120999;23;20442;-77
2022/08/01 06:07:52;;;;;;;1.50;0.90;;;22.00;98.20;;;;;;6104639;23;20449;-77
2022/08/01 06:10:20;;;;;;;1.50;0.90;;;22.00;98.20;;;;;;6120994;23;20426;-77
2022/08/01 06:12:47;;;;;;;2.07;1.57;;;22.10;98.20;;;;;;6104395;23;20478;-78
2022/08/01 06:15:14;;;;;;;1.50;0.90;;;22.20;98.20;;;;;;6120374;23;20470;-77
2022/08/01 06:17:41;;;;;;;1.50;0.90;;;22.30;98.20;;;;;;6105160;23;20449;-77
2022/08/01 06:20:09;;;;;;;1.50;0.90;;;22.40;98.20;;;;;;6120886;23;20501;-77
2022/08/01 06:22:36;;;;;;;1.50;0.90;;;22.40;98.20;;;;;;6105346;23;20449;-77
2022/08/01 06:25:04;;;;;;;1.50;0.90;;;22.40;98.20;;;;;;6132981;23;20460;-78
2022/08/01 06:27:35;;;;;;;1.50;0.90;;;22.50;98.20;;;;;;6104566;23;20453;-77
2022/08/01 06:30:02;;;;;;;1.50;0.90;;;22.70;98.20;;;;;;6121707;23;20403;-77
2022/08/01 06:32:29;;;;;;;1.50;0.87;;;22.90;98.20;;;;;;6105035;23;20517;-77
2022/08/01 06:34:56;;;;;;;1.50;0.90;;;23.00;98.20;;;;;;6121722;23;20442;-78
2022/08/01 06:37:23;;;;;;;1.50;0.90;;;23.10;98.20;;;;;;6105850;23;20858;-78
2022/08/01 06:39:50;;;;;;;1.50;0.90;;;23.20;98.20;;;;;;6120276;23;20449;-78
2022/08/01 06:42:17;;;;;;;1.60;1.10;;;23.20;98.20;;;;;;6105633;23;20461;-79
2022/08/01 06:44:46;;;;;;;1.43;0.90;;;23.20;98.20;;;;;;6121695;23;20449;-75
2022/08/01 06:47:13;;;;;;;1.50;0.90;;;23.10;98.20;;;;;;6105858;23;20669;-76
2022/08/01 06:49:40;;;;;;;1.50;0.90;;;23.10;98.20;;;;;;6120989;23;20490;-78
2022/08/01 06:52:07;;;;;;;1.47;0.90;;;23.20;98.20;;;;;;6109881;23;20465;-76
2022/08/01 06:54:34;;;;;;;1.50;0.90;;;23.30;98.20;;;;;;6121221;23;20445;-78
2022/08/01 06:57:01;;;;;;;1.47;0.90;;;23.30;98.20;;;;;;6105587;23;20492;-76
2022/08/01 06:59:28;;;;;;;1.47;0.90;;;23.30;98.20;;;;;;6121235;23;20517;-77
2022/08/01 07:01:56;;;;;;;1.47;0.90;;;23.30;98.20;;;;;;6108873;23;20462;-77
2022/08/01 07:04:23;;;;;;;1.47;0.90;;;23.40;98.20;;;;;;6120673;23;20544;-76
2022/08/01 07:06:50;;;;;;;1.50;0.80;;;23.30;98.20;;;;;;6104234;23;20476;-77
2022/08/01 07:09:17;;;;;;;1.50;1.03;;;23.30;98.20;;;;;;6119243;23;20426;-76
2022/08/01 07:11:44;;;;;;;1.50;0.90;;;23.20;98.20;;;;;;6104906;23;20449;-76
2022/08/01 07:14:11;;;;;;;1.50;0.90;;;23.10;98.20;;;;;;6119912;23;20445;-76
2022/08/01 07:16:38;;;;;;;1.50;0.90;;;23.10;98.20;;;;;;6104355;23;20454;-76
2022/08/01 07:19:06;;;;;;;1.50;0.90;;;23.20;98.20;;;;;;6119352;23;21038;-76
2022/08/01 07:21:34;;;;;;;1.50;0.90;;;23.40;98.20;;;;;;6104960;23;20450;-76
2022/08/01 07:24:01;;;;;;;1.50;1.00;;;23.40;98.20;;;;;;6122715;23;20931;-78
2022/08/01 07:26:29;;;;;;;1.50;0.90;;;23.50;98.20;;;;;;6102018;23;20453;-77
2022/08/01 07:28:56;;;;;;;1.50;0.90;;;23.70;98.20;;;;;;6129882;23;20422;-77
2022/08/01 07:31:23;;;;;;;1.50;0.80;;;24.00;98.20;;;;;;6105053;23;20473;-77
2022/08/01 07:33:50;;;;;;;1.50;0.90;;;24.20;98.20;;;;;;6118972;23;20771;-77
2022/08/01 07:36:19;;;;;;;1.50;0.80;;;24.30;97.50;;;;;;6105334;23;20907;-77
2022/08/01 07:38:47;;;;;;;1.50;0.90;;;24.50;98.20;;;;;;6119068;23;20504;-78
2022/08/01 07:41:14;;;;;;;1.50;0.90;;;24.80;97.50;;;;;;6122243;23;20432;-78
2022/08/01 07:43:43;;;;;;;1.50;0.90;;;25.10;95.80;;;;;;6120272;23;20509;-78
2022/08/01 07:46:10;;;;;;;1.50;0.90;;;25.30;95.60;;;;;;6120292;23;20425;-76
2022/08/01 07:48:37;;;;;;;1.50;1.10;;;25.40;94.40;;;;;;6120300;23;20446;-77
2022/08/01 07:51:04;;;;;;;1.50;0.80;;;25.60;94.40;;;;;;6105406;23;20432;-77
2022/08/01 07:53:32;;;;;;;1.70;1.40;;;25.70;94.00;;;;;;6119258;23;20422;-77
2022/08/01 07:56:00;;;;;;;1.50;0.90;;;25.70;92.90;;;;;;6120278;23;21020;-77
2022/08/01 07:58:27;;;;;;;1.50;0.90;;;25.80;93.80;;;;;;6120934;23;20453;-77
2022/08/01 08:00:53;;;;;;;1.50;0.90;;;25.90;93.00;;;;;;6120773;23;20580;-77
2022/08/01 08:03:20;;;;;;;1.50;0.90;;;25.90;91.50;;;;;;6121152;23;20426;-77
2022/08/01 08:05:48;;;;;;;1.50;0.87;;;25.90;92.00;;;;;;6104875;23;20442;-77
2022/08/01 08:08:16;;;;;;;1.50;0.90;;;25.90;91.10;;;;;;6119401;23;20480;-77
2022/08/01 08:10:45;;;;;;;1.43;0.90;;;25.80;91.30;;;;;;6120369;23;20505;-78
2022/08/01 08:13:12;;;;;;;1.47;0.80;;;25.80;91.90;;;;;;6104281;23;20436;-77
2022/08/01 08:15:39;;;;;;;1.50;0.80;;;25.60;92.20;;;;;;6120685;23;20444;-77
2022/08/01 08:18:06;;;;;;;1.50;0.90;;;25.50;92.60;;;;;;6104388;23;20446;-76
2022/08/01 08:20:34;;;;;;;1.87;1.40;;;25.70;92.80;;;;;;6120914;23;20453;-77
2022/08/01 08:23:01;;;;;;;1.50;0.90;;;25.80;92.30;;;;;;6124064;23;20432;-78
2022/08/01 08:25:28;;;;;;;1.50;0.90;;;25.90;92.20;;;;;;6130967;23;20879;-75
2022/08/01 08:27:57;;;;;;;1.47;0.80;;;25.90;91.40;;;;;;6103665;23;20464;-76
2022/08/01 08:30:24;;;;;;;1.50;0.90;;;25.90;91.50;;;;;;6120192;23;20428;-75
2022/08/01 08:32:50;;;;;;;1.47;0.80;;;25.90;90.40;;;;;;6103405;23;20449;-76
2022/08/01 08:35:17;;;;;;;1.47;0.80;;;25.90;90.30;;;;;;6120966;23;20438;-77
2022/08/01 08:40:47;;;;;;;1.43;0.80;;;25.90;89.40;;;;;;6127445;23;20515;-78
2022/08/01 08:43:16;;;;;;;1.47;0.90;;;26.00;90.10;;;;;;6139468;23;20931;-78
2022/08/01 08:45:45;;;;;;;1.43;0.83;;;26.20;90.80;;;;;;6127758;23;20441;-78
2022/08/01 08:48:13;;;;;;;1.50;0.90;;;26.40;89.30;;;;;;6107991;23;20916;-77
2022/08/01 08:50:42;;;;;;;1.43;0.80;;;26.60;89.70;;;;;;6128079;23;20417;-77
2022/08/01 08:53:11;;;;;;;1.50;0.90;;;26.80;88.70;;;;;;6122281;23;20422;-77
2022/08/01 08:55:38;;;;;;;1.47;0.80;;;27.00;88.10;;;;;;6122219;23;20433;-77
2022/08/01 08:58:06;;;;;;;1.47;0.80;;;27.30;87.90;;;;;;6107174;23;20445;-76
2022/08/01 09:00:35;;;;;;;1.50;0.80;;;27.50;86.40;;;;;;6122253;23;20480;-77
2022/08/01 09:03:02;;;;;;;1.50;0.90;;;27.60;85.80;;;;;;6105708;23;20963;-77
2022/08/01 09:05:30;;;;;;;1.50;1.00;;;27.30;86.60;;;;;;6121203;23;20469;-78
2022/08/01 09:07:56;;;;;;;1.47;0.80;;;27.20;86.60;;;;;;6125175;23;20929;-77
2022/08/01 09:10:23;;;;;;;1.50;0.80;;;27.00;86.00;;;;;;6125072;23;20440;-77
2022/08/01 09:13:10;;;;;;;1.50;0.90;;;26.90;86.40;;;;;;6123682;23;20451;-76
2022/08/01 09:15:44;;;;;;;1.50;0.90;;;26.90;88.00;;;;;;6123167;23;20979;-76
2022/08/01 09:18:30;;;;;;;1.43;0.80;;;26.90;86.80;;;;;;6106905;23;20500;-77
2022/08/01 09:21:10;;;;;;;1.50;0.80;;;26.70;87.40;;;;;;6110472;23;20465;-78
2022/08/01 09:23:41;;;;;;;1.50;0.90;;;26.50;87.90;;;;;;6103777;23;20439;-76
2022/08/01 09:26:09;;;;;;;1.50;0.80;;;26.40;88.40;;;;;;6106921;23;20820;-78
2022/08/01 09:28:36;;;;;;;1.47;0.90;;;26.30;88.40;;;;;;6123523;23;20480;-77
2022/08/01 09:31:10;;;;;;;1.50;0.90;;;26.30;88.10;;;;;;6108076;23;20738;-76
2022/08/01 09:34:00;;;;;;;1.50;0.90;;;26.30;87.80;;;;;;6122826;23;20410;-78
2022/08/01 09:36:44;;;;;;;1.50;0.80;;;26.40;87.60;;;;;;6104582;23;20445;-78
2022/08/01 09:39:15;;;;;;;1.47;0.80;;;26.40;87.70;;;;;;6123570;23;20441;-76
2022/08/01 09:41:42;;;;;;;1.50;0.90;;;26.40;88.30;;;;;;6123125;23;20422;-77
2022/08/01 09:44:10;;;;;;;1.50;0.90;;;26.70;87.40;;;;;;6123700;23;20580;-78
2022/08/01 09:46:50;;;;;;;1.40;0.80;;;26.80;86.70;;;;;;6115841;23;20464;-77
2022/08/01 09:49:28;;;;;;;1.50;0.90;;;27.00;86.00;;;;;;6123637;23;20421;-78
2022/08/01 09:51:56;;;;;;;1.50;0.87;;;27.10;85.90;;;;;;6125679;23;20425;-77
2022/08/01 09:54:31;;;;;;;1.47;0.80;;;27.20;86.20;;;;;;6126064;23;20856;-76
2022/08/01 09:57:10;;;;;;;1.40;0.80;;;27.20;85.20;;;;;;6107940;23;20519;-77
2022/08/01 09:59:41;;;;;;;1.47;0.80;;;27.10;85.70;;;;;;6126854;23;20777;-77
2022/08/01 10:02:30;;;;;;;1.47;0.90;;;27.10;85.20;;;;;;6109389;23;20472;-78
2022/08/01 10:04:57;;;;;;;1.40;0.80;;;27.20;86.30;;;;;;6122600;23;20496;-78
2022/08/01 10:07:24;;;;;;;1.43;0.80;;;27.30;84.40;;;;;;6103707;23;20453;-78
2022/08/01 10:09:51;;;;;;;1.40;0.80;;;27.30;85.20;;;;;;6120358;23;20417;-77
2022/08/01 10:12:23;;;;;;;1.50;0.90;;;27.40;85.00;;;;;;6104156;23;20449;-75
2022/08/01 10:14:54;;;;;;;1.50;0.80;;;27.60;85.40;;;;;;6121324;23;20441;-75
2022/08/01 10:17:26;;;;;;;1.43;0.80;;;27.70;84.60;;;;;;6107742;23;20983;-77
2022/08/01 10:19:55;;;;;;;1.47;0.80;;;27.90;84.40;;;;;;6122344;23;20793;-78
2022/08/01 10:22:26;;;;;;;1.40;0.80;;;28.20;83.30;;;;;;6121143;23;20517;-77
2022/08/01 10:24:56;;;;;;;1.50;0.80;;;28.50;82.90;;;;;;6133581;23;20460;-78
2022/08/01 10:27:25;;;;;;;1.50;0.80;;;28.60;81.40;;;;;;6106295;23;20456;-78
2022/08/01 10:29:56;;;;;;;1.50;0.80;;;28.70;81.70;;;;;;6121358;23;20512;-79
2022/08/01 10:32:25;;;;;;;1.43;0.80;;;28.70;80.50;;;;;;6104306;23;20986;-77
2022/08/01 10:34:52;;;;;;;1.47;0.80;;;28.80;81.00;;;;;;6131435;23;20488;-78
2022/08/01 10:37:20;;;;;;;1.47;0.80;;;28.80;80.60;;;;;;6104501;23;20449;-77
2022/08/01 10:39:47;;;;;;;1.47;0.90;;;28.80;80.20;;;;;;6138282;23;20449;-78
2022/08/01 10:42:14;;;;;;;1.43;0.80;;;28.80;80.00;;;;;;6107627;23;20449;-77
2022/08/01 10:44:42;;;;;;;1.43;0.80;;;28.70;79.10;;;;;;6119544;23;20445;-78
2022/08/01 10:47:11;;;;;;;1.50;0.83;;;28.30;78.70;;;;;;6104442;23;20476;-77
2022/08/01 10:49:45;;;;;;;1.43;0.90;;;28.00;80.50;;;;;;6121318;23;20429;-77
2022/08/01 10:52:16;;;;;;;1.47;0.80;;;27.90;80.60;;;;;;6104998;23;20477;-78
2022/08/01 10:54:43;;;;;;;1.50;0.80;;;27.90;80.90;;;;;;6121377;23;20956;-77
2022/08/01 10:57:11;;;;;;;1.50;0.90;;;28.00;82.60;;;;;;6119707;23;20452;-78
2022/08/01 10:59:49;;;;;;;1.43;0.83;;;28.10;81.10;;;;;;6121090;23;20560;-76
2022/08/01 11:02:28;;;;;;;1.40;0.80;;;28.20;81.10;;;;;;6104132;23;20449;-77
2022/08/01 11:04:59;;;;;;;1.40;0.80;;;28.40;80.10;;;;;;6120554;23;20445;-78
2022/08/01 11:07:45;;;;;;;1.50;0.80;;;28.60;80.90;;;;;;6120583;23;20405;-78
2022/08/01 11:10:22;;;;;;;1.50;0.90;;;29.10;78.20;;;;;;6122065;23;20401;-79
2022/08/01 11:12:52;;;;;;;1.47;0.80;;;29.60;75.70;;;;;;6103236;23;20448;-78
2022/08/01 11:15:26;;;;;;;1.50;0.80;;;29.80;74.50;;;;;;6132065;23;20828;-79
2022/08/01 11:18:00;;;;;;;1.47;0.80;;;29.90;73.80;;;;;;6104692;23;20902;-79
2022/08/01 11:20:31;;;;;;;1.50;0.80;;;29.80;74.30;;;;;;6122160;23;20445;-78
2022/08/01 11:23:28;;;;;;;1.47;0.80;;;29.60;76.20;;;;;;6104320;23;20511;-78
2022/08/01 11:26:12;;;;;;;1.47;0.80;;;29.10;77.60;;;;;;6107174;23;20456;-77
2022/08/01 11:28:40;;;;;;;1.50;0.90;;;28.60;78.20;;;;;;6119731;23;20410;-75
2022/08/01 11:31:30;;;;;;;1.47;0.87;;;28.30;78.30;;;;;;6104683;23;20442;-77
2022/08/01 11:33:57;;;;;;;1.50;0.80;;;28.10;77.40;;;;;;6121595;23;20936;-76
2022/08/01 11:36:27;;;;;;;1.47;0.80;;;27.90;79.00;;;;;;6104400;23;20531;-78
2022/08/01 11:39:18;;;;;;;1.50;1.10;;;27.80;78.40;;;;;;6119319;23;20429;-76
2022/08/01 11:41:47;;;;;;;1.47;0.80;;;27.80;78.90;;;;;;6108596;23;20476;-78
2022/08/01 11:44:17;;;;;;;1.43;0.80;;;28.00;79.20;;;;;;6119142;23;20956;-78
2022/08/01 11:47:00;;;;;;;1.40;0.80;;;28.20;77.40;;;;;;6129234;23;20761;-77
2022/08/01 11:49:33;;;;;;;1.40;0.80;;;28.50;76.50;;;;;;6121909;23;20413;-78
2022/08/01 11:52:10;;;;;;;1.47;0.80;;;28.60;76.80;;;;;;6103704;23;20790;-77
2022/08/01 11:54:39;;;;;;;1.50;0.80;;;28.70;76.50;;;;;;6112223;23;20768;-76
2022/08/01 11:57:08;;;;;;;1.43;0.80;;;28.90;78.60;;;;;;6102507;23;20475;-76
2022/08/01 11:59:45;;;;;;;1.50;0.90;;;29.00;76.80;;;;;;6122597;23;20424;-79
2022/08/01 12:02:20;;;;;;;1.47;0.80;;;29.10;76.80;;;;;;6105295;23;20573;-78
2022/08/01 12:04:53;;;;;;;1.50;0.80;;;29.10;75.60;;;;;;6120768;23;20451;-78
2022/08/01 12:07:23;;;;;;;1.47;0.80;;;28.90;74.90;;;;;;6118962;23;20472;-78
2022/08/01 12:09:59;;;;;;;1.43;0.80;;;29.10;75.80;;;;;;6119431;23;20421;-79
2022/08/01 12:12:26;;;;;;;1.47;0.80;;;29.30;76.80;;;;;;6098420;23;20458;-78
2022/08/01 12:14:59;;;;;;;1.50;0.80;;;29.70;75.60;;;;;;6117102;23;20441;-78
2022/08/01 12:17:34;;;;;;;1.47;0.80;;;29.80;75.40;;;;;;6118430;23;20421;-77
2022/08/01 12:20:02;;;;;;;1.40;0.80;;;29.90;74.20;;;;;;6119279;23;20803;-77
2022/08/01 12:22:34;;;;;;;1.47;0.80;;;29.90;71.70;;;;;;6103063;23;20760;-78
2022/08/01 12:25:10;;;;;;;1.47;0.80;;;29.90;71.60;;;;;;6121393;23;20884;-78
2022/08/01 12:27:43;;;;;;;1.50;0.90;;;29.70;72.10;;;;;;6104393;23;20448;-77
2022/08/01 12:30:12;;;;;;;1.43;0.80;;;29.60;71.90;;;;;;6120221;23;20448;-77
2022/08/01 12:32:41;;;;;;;1.47;0.80;;;29.90;69.40;;;;;;6103145;23;20456;-78
2022/08/01 12:35:10;;;;;;;1.50;1.00;;;30.20;69.70;;;;;;6120611;23;20576;-78
2022/08/01 12:37:41;;;;;;;1.43;0.80;;;30.40;68.40;;;;;;6109557;23;20464;-77
2022/08/01 12:40:14;;;;;;;1.43;0.80;;;30.60;67.80;;;;;;6130690;23;20439;-78
2022/08/01 12:42:42;;;;;;;1.43;0.80;;;30.80;67.90;;;;;;6103104;23;20475;-79
2022/08/01 12:45:11;;;;;;;1.47;0.80;;;31.00;68.20;;;;;;6120159;23;20532;-79
2022/08/01 12:47:40;;;;;;;1.47;0.80;;;31.40;67.30;;;;;;6105461;23;20455;-76
2022/08/01 12:50:11;;;;;;;1.47;0.80;;;31.70;66.20;;;;;;6120978;23;20421;-78
2022/08/01 12:52:40;;;;;;;1.47;0.80;;;31.80;64.60;;;;;;6121324;23;20850;-79
2022/08/01 12:55:11;;;;;;;1.47;0.80;;;31.70;66.30;;;;;;6121743;23;20444;-78
2022/08/01 12:57:40;;;;;;;1.43;0.80;;;31.60;65.70;;;;;;6104162;23;20793;-77
2022/08/01 13:00:17;;;;;;;1.47;0.80;;;31.40;65.40;;;;;;6120646;23;20425;-77
2022/08/01 13:02:45;;;;;;;1.50;0.80;;;31.30;65.80;;;;;;6104291;23;20448;-80
2022/08/01 13:05:13;;;;;;;1.50;0.80;;;31.10;66.30;;;;;;6122289;23;20440;-79